createdAt,value
2022-09-29T00:03:26.554Z,7.03
2022-09-29T00:08:32.602Z,5.30
2022-09-29T00:13:36.031Z,5.73
2022-09-29T00:18:41.354Z,6.13
2022-09-29T00:23:44.665Z,5.67
2022-09-29T00:28:50.091Z,8.00
2022-09-29T00:33:54.772Z,10.87
2022-09-29T00:39:02.140Z,5.10
2022-09-29T00:44:07.198Z,5.57
2022-09-29T00:49:18.676Z,5.47
2022-09-29T00:54:22.747Z,4.87
2022-09-29T00:59:33.385Z,6.57
2022-09-29T01:04:38.132Z,4.97
2022-09-29T01:09:44.302Z,5.23
2022-09-29T01:14:49.107Z,5.10
2022-09-29T01:20:05.030Z,5.40
2022-09-29T01:25:25.686Z,6.67
2022-09-29T01:30:43.874Z,5.50
2022-09-29T01:35:59.546Z,5.77
2022-09-29T01:41:11.789Z,6.13
2022-09-29T01:46:22.352Z,5.47
2022-09-29T01:51:31.791Z,6.13
2022-09-29T01:56:38.990Z,6.97
2022-09-29T02:01:47.599Z,7.07
2022-09-29T02:06:58.995Z,7.17
2022-09-29T02:12:04.477Z,6.30
2022-09-29T02:17:19.407Z,7.17
2022-09-29T02:22:22.701Z,6.33
2022-09-29T02:27:26.693Z,6.80
2022-09-29T02:32:32.506Z,8.00
2022-09-29T02:37:48.975Z,7.90
2022-09-29T02:43:07.235Z,8.13
2022-09-29T02:48:27.347Z,7.90
2022-09-29T02:53:45.184Z,8.00
2022-09-29T02:58:53.215Z,10.27
2022-09-29T03:03:59.950Z,8.17
2022-09-29T03:09:06.544Z,8.67
2022-09-29T03:14:09.595Z,8.20
2022-09-29T03:19:14.192Z,8.70
2022-09-29T03:24:17.370Z,8.80
2022-09-29T03:29:20.756Z,7.63
2022-09-29T03:34:25.285Z,7.17
2022-09-29T03:39:28.634Z,7.67
2022-09-29T03:44:31.786Z,7.70
2022-09-29T03:49:36.442Z,7.03
2022-09-29T03:54:39.534Z,7.47
2022-09-29T03:59:45.561Z,8.03
2022-09-29T04:04:50.932Z,10.07
2022-09-29T04:09:53.898Z,7.33
2022-09-29T04:14:57.539Z,10.50
2022-09-29T04:20:02.910Z,8.47
2022-09-29T04:25:06.833Z,8.50
2022-09-29T04:30:11.079Z,7.77
2022-09-29T04:35:15.725Z,7.70
2022-09-29T04:40:18.947Z,9.33
2022-09-29T04:45:22.296Z,7.53
2022-09-29T04:50:26.818Z,8.40
2022-09-29T04:55:29.975Z,7.80
2022-09-29T05:00:33.224Z,7.03
2022-09-29T05:05:37.563Z,8.03
2022-09-29T05:10:40.443Z,7.67
2022-09-29T05:15:43.564Z,8.87
2022-09-29T05:21:05.599Z,7.97
2022-09-29T05:26:13.193Z,9.17
2022-09-29T05:31:17.953Z,7.43
2022-09-29T05:36:26.697Z,7.53
2022-09-29T05:41:29.849Z,7.93
2022-09-29T05:46:33.393Z,8.33
2022-09-29T05:51:37.796Z,8.80
2022-09-29T05:56:45.165Z,7.27
2022-09-29T06:01:48.708Z,7.80
2022-09-29T06:06:55.414Z,8.20
2022-09-29T06:11:59.913Z,8.53
2022-09-29T06:17:05.081Z,9.50
2022-09-29T06:22:09.533Z,7.97
2022-09-29T06:27:12.642Z,8.40
2022-09-29T06:32:16.509Z,11.23
2022-09-29T06:37:35.859Z,13.60
2022-09-29T06:42:39.572Z,8.20
2022-09-29T06:47:43.651Z,12.73
2022-09-29T06:53:01.359Z,8.73
2022-09-29T06:58:07.376Z,12.73
2022-09-29T07:03:10.536Z,10.07
2022-09-29T07:08:14.919Z,8.60
2022-09-29T07:13:18.386Z,9.00
2022-09-29T07:18:21.809Z,9.53
2022-09-29T07:23:27.415Z,12.17
2022-09-29T07:28:31.132Z,10.77
2022-09-29T07:33:39.727Z,9.43
2022-09-29T07:38:47.117Z,8.30
2022-09-29T07:43:50.050Z,10.30
2022-09-29T07:48:53.060Z,10.63
2022-09-29T07:54:02.055Z,9.50
2022-09-29T07:59:05.563Z,10.43
2022-09-29T08:04:08.759Z,10.27
2022-09-29T08:09:14.950Z,12.00
2022-09-29T08:14:18.592Z,11.07
2022-09-29T08:19:22.178Z,11.40
2022-09-29T08:24:26.943Z,11.13
2022-09-29T08:29:43.373Z,11.43
2022-09-29T08:34:49.118Z,11.30
2022-09-29T08:39:53.863Z,11.73
2022-09-29T08:45:14.118Z,12.60
2022-09-29T08:50:30.172Z,12.27
2022-09-29T08:55:43.440Z,10.67
2022-09-29T09:00:56.748Z,12.03
2022-09-29T09:06:14.900Z,9.60
2022-09-29T09:11:35.362Z,9.57
2022-09-29T09:16:48.652Z,10.40
2022-09-29T09:21:56.322Z,9.53
2022-09-29T09:27:00.910Z,9.93
2022-09-29T09:32:08.673Z,10.43
2022-09-29T09:37:17.578Z,11.00
2022-09-29T09:42:26.433Z,9.13
2022-09-29T09:47:31.209Z,9.07
2022-09-29T09:52:40.443Z,8.43
2022-09-29T09:58:00.370Z,9.43
2022-09-29T10:03:06.109Z,6.70
2022-09-29T10:08:14.498Z,6.60
2022-09-29T10:13:19.528Z,6.72
2022-09-29T10:18:27.147Z,5.97
2022-09-29T10:23:32.804Z,6.05
2022-09-29T10:28:45.224Z,6.57
2022-09-29T10:33:52.423Z,5.00
2022-09-29T10:38:59.588Z,5.03
2022-09-29T10:44:23.055Z,6.05
2022-09-29T10:49:31.963Z,4.78
2022-09-29T10:54:38.084Z,4.53
2022-09-29T10:59:49.816Z,2.88
2022-09-29T11:04:56.088Z,4.82
2022-09-29T11:10:02.488Z,3.17
2022-09-29T11:15:25.387Z,4.45
2022-09-29T11:20:35.135Z,3.05
2022-09-29T11:26:07.580Z,2.35
2022-09-29T11:31:31.382Z,2.03
2022-09-29T11:36:43.883Z,3.38
2022-09-29T11:42:05.753Z,3.08
2022-09-29T11:47:23.789Z,4.00
2022-09-29T11:52:51.347Z,5.65
2022-09-29T11:58:07.084Z,1.80
2022-09-29T12:03:24.433Z,2.78
2022-09-29T12:08:41.133Z,2.92
2022-09-29T12:13:52.314Z,3.90
2022-09-29T12:18:59.875Z,2.08
2022-09-29T12:24:07.405Z,3.38
2022-09-29T12:29:25.865Z,6.63
2022-09-29T12:34:40.217Z,1.92
2022-09-29T12:39:49.732Z,3.58
2022-09-29T12:44:59.214Z,1.55
2022-09-29T12:50:12.726Z,4.38
2022-09-29T12:55:21.063Z,1.50
2022-09-29T13:00:25.531Z,3.00
2022-09-29T13:06:06.044Z,3.92
2022-09-29T13:11:27.490Z,2.42
2022-09-29T13:16:45.663Z,1.85
2022-09-29T13:22:00.842Z,2.03
2022-09-29T13:27:19.420Z,2.13
2022-09-29T13:32:23.742Z,2.42
2022-09-29T13:37:34.002Z,2.33
2022-09-29T13:42:43.167Z,0.80
2022-09-29T13:47:47.970Z,1.70
2022-09-29T13:52:52.619Z,7.88
2022-09-29T13:57:55.691Z,5.18
2022-09-29T14:03:08.183Z,3.55
2022-09-29T14:08:20.684Z,2.63
2022-09-29T14:13:29.394Z,2.35
2022-09-29T14:18:35.440Z,3.35
2022-09-29T14:23:55.152Z,1.13
2022-09-29T14:28:59.818Z,1.52
2022-09-29T14:34:03.859Z,2.10
2022-09-29T14:39:26.150Z,2.13
2022-09-29T14:44:52.715Z,1.80
2022-09-29T14:50:33.290Z,8.98
2022-09-29T14:55:48.810Z,2.15
2022-09-29T15:01:09.072Z,5.45
2022-09-29T15:06:15.102Z,6.03
2022-09-29T15:11:46.471Z,1.30
2022-09-29T15:17:01.681Z,5.25
2022-09-29T15:22:23.977Z,1.40
2022-09-29T15:27:30.566Z,2.13
2022-09-29T15:32:37.583Z,4.82
2022-09-29T15:37:56.363Z,4.63
2022-09-29T15:43:07.618Z,7.85
2022-09-29T15:48:15.314Z,2.97
2022-09-29T15:53:22.392Z,5.22
2022-09-29T15:58:48.093Z,2.00
2022-09-29T16:03:59.028Z,1.88
2022-09-29T16:09:06.285Z,4.78
2022-09-29T16:14:19.015Z,1.63
2022-09-29T16:19:28.772Z,1.25
2022-09-29T16:24:37.287Z,1.20
2022-09-29T16:29:41.710Z,1.42
2022-09-29T16:34:44.974Z,4.00
2022-09-29T16:39:50.909Z,3.33
2022-09-29T16:44:57.593Z,7.93
2022-09-29T16:50:03.457Z,6.90
2022-09-29T16:55:28.147Z,5.15
2022-09-29T17:00:32.984Z,5.93
2022-09-29T17:05:40.412Z,7.25
2022-09-29T17:10:43.786Z,9.55
2022-09-29T17:15:51.537Z,11.25
2022-09-29T17:20:54.653Z,7.78
2022-09-29T17:26:18.207Z,5.28
2022-09-29T17:31:23.319Z,2.88
2022-09-29T17:36:27.517Z,5.07
2022-09-29T17:41:34.028Z,8.02
2022-09-29T17:46:39.371Z,5.87
2022-09-29T17:51:42.439Z,4.90
2022-09-29T17:56:45.584Z,7.30
2022-09-29T18:01:50.117Z,4.50
2022-09-29T18:06:53.122Z,4.73
2022-09-29T18:11:56.151Z,3.67
2022-09-29T18:17:01.074Z,3.73
2022-09-29T18:22:06.830Z,5.33
2022-09-29T18:27:14.797Z,3.47
2022-09-29T18:32:21.250Z,4.57
2022-09-29T18:37:24.999Z,4.07
2022-09-29T18:42:29.963Z,4.60
2022-09-29T18:47:34.544Z,5.00
2022-09-29T18:52:37.705Z,6.93
2022-09-29T18:57:41.309Z,5.37
2022-09-29T19:02:48.490Z,4.13
2022-09-29T19:07:55.461Z,7.37
2022-09-29T19:13:01.477Z,8.27
2022-09-29T19:18:07.585Z,4.90
2022-09-29T19:23:10.567Z,6.80
2022-09-29T19:28:13.766Z,5.43
2022-09-29T19:33:20.808Z,5.07
2022-09-29T19:38:24.376Z,6.30
2022-09-29T19:43:27.837Z,5.50
2022-09-29T19:48:32.499Z,7.10
2022-09-29T19:53:36.015Z,5.30
2022-09-29T19:58:40.205Z,6.97
2022-09-29T20:03:48.029Z,6.73
2022-09-29T20:08:51.042Z,6.50
2022-09-29T20:13:54.400Z,6.67
2022-09-29T20:18:58.833Z,6.83
2022-09-29T20:24:02.692Z,6.30
2022-09-29T20:29:06.321Z,8.83
2022-09-29T20:34:11.736Z,9.20
2022-09-29T20:39:15.273Z,8.00
2022-09-29T20:44:20.095Z,7.13
2022-09-29T20:49:25.419Z,6.50
2022-09-29T20:54:30.000Z,6.70
2022-09-29T20:59:33.987Z,7.17
2022-09-29T21:04:38.966Z,7.30
2022-09-29T21:09:42.229Z,7.83
2022-09-29T21:14:46.498Z,6.23
2022-09-29T21:19:50.997Z,8.47
2022-09-29T21:24:54.237Z,6.73
2022-09-29T21:29:57.258Z,7.23
2022-09-29T21:35:04.372Z,7.97
2022-09-29T21:40:09.404Z,8.93
2022-09-29T21:45:13.553Z,7.63
2022-09-29T21:50:18.688Z,6.37
2022-09-29T21:55:21.775Z,6.87
2022-09-29T22:00:24.983Z,7.60
2022-09-29T22:05:46.552Z,7.80
2022-09-29T22:10:54.597Z,7.83
2022-09-29T22:16:04.348Z,10.13
2022-09-29T22:21:10.995Z,8.13
2022-09-29T22:26:16.453Z,7.00
2022-09-29T22:31:19.754Z,6.93
2022-09-29T22:36:25.380Z,6.67
2022-09-29T22:41:29.537Z,7.67
2022-09-29T22:46:35.120Z,10.80
2022-09-29T22:51:40.018Z,11.07
2022-09-29T22:56:43.435Z,8.33
2022-09-29T23:01:47.386Z,11.33
2022-09-29T23:06:52.606Z,9.03
2022-09-29T23:11:56.223Z,9.53
2022-09-29T23:17:00.158Z,8.80
2022-09-29T23:22:04.800Z,8.00
2022-09-29T23:27:08.589Z,10.17
2022-09-29T23:32:11.652Z,9.57
2022-09-29T23:37:16.304Z,10.03
2022-09-29T23:42:19.531Z,7.77
2022-09-29T23:47:23.023Z,10.70
2022-09-29T23:52:27.456Z,10.07
2022-09-29T23:57:32.272Z,9.20
